Time;durP1;ratioP1;P1;durP2;ratioP2;P2;SDS_P1;SDS_P2;PMS_P1;PMS_P2;Temp;Humidity;BMP_temperature;BMP_pressure;BME280_temperature;BME280_humidity;BME280_pressure;Samples;Min_cycle;Max_cycle;Signal;HPM_P1;HPM_P2
2021/10/30 00:00:13;;;;;;;13.95;5.50;;;;;;;10.35;71.05;100574.31;4991222;28;20061;-81
2021/10/30 00:02:40;;;;;;;16.15;6.05;;;;;;;10.36;70.54;100576.91;4973195;28;20496;-75
2021/10/30 00:05:08;;;;;;;12.70;5.78;;;;;;;10.25;70.81;100568.75;4974515;28;20058;-77
2021/10/30 00:07:34;;;;;;;14.93;5.93;;;;;;;10.33;70.64;100584.13;4941231;28;20050;-75
2021/10/30 00:10:00;;;;;;;11.88;5.57;;;;;;;10.35;70.75;100576.97;4976445;28;20047;-76
2021/10/30 00:12:26;;;;;;;10.35;5.38;;;;;;;10.29;70.45;100582.63;4974253;28;20518;-76
2021/10/30 00:14:52;;;;;;;13.25;5.70;;;;;;;10.33;70.42;100577.06;4956883;28;20070;-78
2021/10/30 00:17:18;;;;;;;13.52;6.20;;;;;;;10.34;70.11;100580.56;4993884;28;20046;-77
2021/10/30 00:19:44;;;;;;;12.88;5.82;;;;;;;10.28;70.28;100578.28;4978978;28;20054;-79
2021/10/30 00:22:10;;;;;;;13.38;6.05;;;;;;;10.29;70.32;100569.41;4972923;28;20045;-76
2021/10/30 00:24:36;;;;;;;12.57;5.70;;;;;;;10.26;70.09;100573.09;4959607;28;20042;-76
2021/10/30 00:27:03;;;;;;;15.85;6.57;;;;;;;10.29;70.06;100574.69;4978106;28;20062;-77
2021/10/30 00:29:30;;;;;;;11.15;6.28;;;;;;;10.30;69.71;100571.13;4959459;28;20051;-78
2021/10/30 00:31:56;;;;;;;28.23;11.07;;;;;;;10.30;69.53;100576.41;4991983;28;20474;-78
2021/10/30 00:34:23;;;;;;;18.92;7.25;;;;;;;10.33;69.73;100577.06;4977875;28;20038;-79
2021/10/30 00:36:50;;;;;;;15.70;6.80;;;;;;;10.26;69.72;100573.09;4995265;28;20063;-79
2021/10/30 00:39:16;;;;;;;38.67;15.25;;;;;;;10.28;69.88;100567.72;4978864;28;20034;-78
2021/10/30 00:41:50;;;;;;;15.18;6.70;;;;;;;10.23;69.60;100580.38;4965444;28;20477;-76
2021/10/30 00:44:17;;;;;;;12.13;5.85;;;;;;;10.18;70.00;100572.72;4976313;28;20050;-75
2021/10/30 00:46:45;;;;;;;13.02;6.78;;;;;;;10.20;70.04;100581.41;4976437;28;20049;-78
2021/10/30 00:49:13;;;;;;;13.68;6.28;;;;;;;10.25;69.87;100573.19;4976042;28;20094;-76
2021/10/30 00:51:44;;;;;;;12.75;6.20;;;;;;;10.30;69.38;100589.63;4958699;28;20431;-79
2021/10/30 00:54:12;;;;;;;11.38;6.05;;;;;;;10.25;69.67;100573.19;4959849;28;20043;-76
2021/10/30 00:56:42;;;;;;;13.15;5.82;;;;;;;10.21;69.60;100583.09;4975597;28;20046;-76
2021/10/30 00:59:11;;;;;;;13.15;5.72;;;;;;;10.20;70.12;100576.97;4969541;28;20042;-75
2021/10/30 01:01:40;;;;;;;12.68;5.43;;;;;;;10.23;69.71;100581.22;4978163;28;20034;-76
2021/10/30 01:04:06;;;;;;;13.77;6.22;;;;;;;10.23;69.89;100575.06;4994727;28;20080;-76
2021/10/30 01:06:33;;;;;;;13.25;5.88;;;;;;;10.29;69.89;100582.63;4975380;28;20635;-78
2021/10/30 01:08:59;;;;;;;12.52;5.60;;;;;;;10.30;69.67;100582.53;4975438;28;20054;-76
2021/10/30 01:11:25;;;;;;;17.15;6.55;;;;;;;10.27;69.57;100576.59;4975106;28;20054;-75
2021/10/30 01:13:52;;;;;;;12.98;6.20;;;;;;;10.29;69.52;100580.00;4974001;28;20073;-80
2021/10/30 01:16:21;;;;;;;11.45;5.80;;;;;;;10.31;69.37;100578.13;4994340;28;20049;-79
2021/10/30 01:18:48;;;;;;;9.55;5.45;;;;;;;10.32;69.25;100580.66;4995443;28;20058;-76
2021/10/30 01:21:23;;;;;;;13.02;5.55;;;;;;;10.30;69.10;100582.53;4977026;28;20046;-82
2021/10/30 01:23:49;;;;;;;13.68;6.00;;;;;;;10.20;69.35;100581.41;4995143;28;20042;-78
2021/10/30 01:26:15;;;;;;;12.38;6.20;;;;;;;10.25;69.48;100578.50;4987531;28;20054;-76
2021/10/30 01:28:41;;;;;;;12.05;5.85;;;;;;;10.26;69.70;100574.91;4974814;28;20129;-75
2021/10/30 01:31:07;;;;;;;12.90;5.90;;;;;;;10.27;69.07;100580.09;4974625;28;20129;-74
2021/10/30 01:33:33;;;;;;;10.27;5.82;;;;;;;10.24;69.55;100582.91;4975260;28;20043;-76
2021/10/30 01:36:06;;;;;;;11.52;5.95;;;;;;;10.31;69.51;100586.03;4975181;28;20133;-78
2021/10/30 01:38:32;;;;;;;12.63;5.72;;;;;;;10.41;69.28;100584.56;4974727;28;20042;-77
2021/10/30 01:40:58;;;;;;;10.07;5.40;;;;;;;10.41;69.19;100589.84;4955355;29;20503;-76
2021/10/30 01:43:23;;;;;;;11.77;5.65;;;;;;;10.45;69.08;100594.00;4955213;29;20051;-74
2021/10/30 01:45:49;;;;;;;10.77;5.97;;;;;;;10.41;68.74;100594.31;4955464;28;20047;-73
2021/10/30 01:48:16;;;;;;;10.77;5.65;;;;;;;10.36;68.97;100592.75;4954880;29;20070;-72
2021/10/30 01:50:42;;;;;;;14.07;6.00;;;;;;;10.38;69.19;100584.75;4963577;28;20073;-74
2021/10/30 01:53:08;;;;;;;17.05;6.07;;;;;;;10.33;69.27;100589.44;4993360;28;20070;-77
2021/10/30 01:55:38;;;;;;;12.65;6.15;;;;;;;10.32;69.34;100590.41;4977422;28;20479;-76
2021/10/30 01:58:05;;;;;;;11.85;5.65;;;;;;;10.37;69.40;100596.28;4974504;28;20050;-77
2021/10/30 02:00:31;;;;;;;13.52;5.68;;;;;;;10.42;69.27;100591.56;4958902;28;20132;-77
2021/10/30 02:02:57;;;;;;;10.68;6.25;;;;;;;10.44;69.04;100597.59;4956374;28;20057;-75
2021/10/30 02:05:23;;;;;;;14.75;5.70;;;;;;;10.45;69.03;100594.00;4990313;28;20042;-79
2021/10/30 02:07:50;;;;;;;14.52;6.00;;;;;;;10.49;68.97;100608.75;4992162;28;20050;-75
2021/10/30 02:10:16;;;;;;;11.07;5.32;;;;;;;10.45;68.96;100607.22;4978803;28;20066;-74
2021/10/30 02:12:43;;;;;;;9.40;5.15;;;;;;;10.45;68.97;100612.50;4973606;28;20046;-78
2021/10/30 02:15:10;;;;;;;11.55;5.57;;;;;;;10.45;68.54;100607.22;4992845;28;20046;-74
2021/10/30 02:17:37;;;;;;;12.32;5.40;;;;;;;10.48;68.53;100609.69;4993300;28;20042;-74
2021/10/30 02:20:07;;;;;;;11.88;5.65;;;;;;;10.52;68.49;100602.41;4977069;28;20062;-75
2021/10/30 02:22:33;;;;;;;14.70;5.80;;;;;;;10.51;68.84;100601.56;4974073;28;20452;-75
2021/10/30 02:24:59;;;;;;;17.05;6.00;;;;;;;10.55;68.33;100604.84;4974415;28;20042;-77
2021/10/30 02:27:25;;;;;;;11.20;5.95;;;;;;;10.61;68.05;100598.34;4993527;28;20057;-75
2021/10/30 02:29:50;;;;;;;12.57;5.90;;;;;;;10.61;68.27;100606.28;4957957;28;20495;-78
2021/10/30 02:32:16;;;;;;;13.55;6.20;;;;;;;10.66;68.14;100606.84;4973457;28;20130;-76
2021/10/30 02:34:42;;;;;;;15.50;5.97;;;;;;;10.57;68.16;100608.28;4983751;28;20058;-74
2021/10/30 02:37:09;;;;;;;13.27;5.65;;;;;;;10.52;68.49;100613.84;4992350;28;20038;-76
2021/10/30 02:39:35;;;;;;;13.13;6.10;;;;;;;10.54;68.43;100615.53;4977340;28;20043;-76
2021/10/30 02:42:03;;;;;;;16.03;6.93;;;;;;;10.49;68.39;100619.31;4956044;28;20489;-75
2021/10/30 02:44:29;;;;;;;14.43;6.70;;;;;;;10.48;68.65;100604.41;4976444;28;20368;-75
2021/10/30 02:46:54;;;;;;;10.13;5.82;;;;;;;10.46;68.14;100608.91;4975917;28;20170;-75
2021/10/30 02:49:20;;;;;;;11.75;5.45;;;;;;;10.51;68.20;100609.47;4992595;28;20121;-74
2021/10/30 02:51:46;;;;;;;15.10;6.53;;;;;;;10.50;68.43;100607.81;4992575;28;20050;-75
2021/10/30 02:54:11;;;;;;;12.13;6.28;;;;;;;10.59;68.58;100618.75;4992477;28;20050;-76
2021/10/30 02:56:37;;;;;;;12.60;5.78;;;;;;;10.57;67.93;100615.38;4977857;28;20471;-75
2021/10/30 02:59:03;;;;;;;9.55;5.63;;;;;;;10.55;67.94;100628.66;4956028;28;20038;-76
2021/10/30 03:01:29;;;;;;;14.98;6.00;;;;;;;10.52;68.03;100624.41;4958190;28;20042;-79
2021/10/30 03:03:55;;;;;;;12.43;5.70;;;;;;;10.54;68.11;100629.59;4957563;28;20065;-77
2021/10/30 03:06:25;;;;;;;11.20;5.97;;;;;;;10.56;68.05;100634.81;4973826;28;20034;-75
2021/10/30 03:08:51;;;;;;;14.35;5.72;;;;;;;10.55;67.90;100627.81;4941012;28;20042;-77
2021/10/30 03:11:17;;;;;;;13.40;5.97;;;;;;;10.57;67.95;100625.94;4956001;28;20046;-78
2021/10/30 03:13:44;;;;;;;10.70;5.70;;;;;;;10.51;68.11;100627.16;4955963;28;20060;-77
2021/10/30 03:16:10;;;;;;;13.98;6.07;;;;;;;10.51;68.36;100628.00;4972626;28;20562;-76
2021/10/30 03:18:35;;;;;;;11.75;6.47;;;;;;;10.54;67.93;100626.97;4936502;29;20094;-78
2021/10/30 03:21:01;;;;;;;17.58;6.55;;;;;;;10.50;68.24;100634.25;4974374;28;20101;-81
2021/10/30 03:23:27;;;;;;;16.63;5.82;;;;;;;10.51;68.05;100633.28;4992781;28;20092;-78
2021/10/30 03:25:53;;;;;;;14.63;7.20;;;;;;;10.54;68.04;100632.25;4959607;28;20092;-79
2021/10/30 03:28:19;;;;;;;12.93;6.22;;;;;;;10.55;68.09;100638.41;4992254;28;20042;-78
2021/10/30 03:30:46;;;;;;;17.43;8.40;;;;;;;10.60;67.98;100646.91;4977955;28;20395;-80
2021/10/30 03:33:12;;;;;;;17.35;6.82;;;;;;;10.61;68.16;100635.38;4971551;28;20050;-76
2021/10/30 03:35:38;;;;;;;17.65;7.28;;;;;;;10.59;68.18;100635.50;4957237;28;20049;-77
2021/10/30 03:38:05;;;;;;;10.80;5.72;;;;;;;10.63;67.96;100636.13;4956113;28;20058;-80
2021/10/30 03:40:31;;;;;;;20.65;6.82;;;;;;;10.61;67.98;100633.56;4973175;28;20046;-75
2021/10/30 03:42:57;;;;;;;14.43;5.93;;;;;;;10.56;67.99;100634.81;4959157;28;20122;-78
2021/10/30 03:45:24;;;;;;;16.63;6.22;;;;;;;10.54;67.83;100637.53;4991862;28;20121;-78
2021/10/30 03:47:50;;;;;;;12.45;6.15;;;;;;;10.54;68.17;100639.34;4990516;28;20038;-76
2021/10/30 03:50:16;;;;;;;13.80;6.93;;;;;;;10.47;68.28;100631.78;4990985;28;20140;-76
2021/10/30 03:52:44;;;;;;;18.92;7.30;;;;;;;10.49;68.13;100637.84;4995969;28;20159;-78
2021/10/30 03:55:10;;;;;;;15.80;7.35;;;;;;;10.52;67.93;100639.44;4979484;28;20133;-77
2021/10/30 03:57:36;;;;;;;15.20;6.75;;;;;;;10.46;68.01;100640.66;4976659;28;20051;-74
2021/10/30 04:00:04;;;;;;;13.68;7.07;;;;;;;10.47;68.36;100641.53;4958972;28;20042;-76
2021/10/30 04:02:39;;;;;;;69.65;32.85;;;;;;;10.47;68.34;100645.00;4995861;28;20038;-77
2021/10/30 04:05:05;;;;;;;15.13;6.63;;;;;;;10.46;68.30;100643.31;4967511;28;20055;-79
2021/10/30 04:07:31;;;;;;;15.05;6.40;;;;;;;10.47;68.00;100636.25;4976060;28;20448;-80
2021/10/30 04:09:57;;;;;;;14.30;6.32;;;;;;;10.49;68.20;100634.34;4976157;28;20082;-77
2021/10/30 04:12:23;;;;;;;15.77;6.93;;;;;;;10.49;68.44;100629.91;4976215;28;20043;-77
2021/10/30 04:14:49;;;;;;;14.85;7.15;;;;;;;10.50;68.22;100642.19;4989499;28;20042;-74
2021/10/30 04:17:15;;;;;;;14.65;7.75;;;;;;;10.46;68.16;100635.38;4975613;28;20043;-77
2021/10/30 04:19:41;;;;;;;13.20;6.47;;;;;;;10.48;68.07;100637.91;4974453;28;20101;-77
2021/10/30 04:22:07;;;;;;;12.57;6.65;;;;;;;10.48;68.28;100633.50;4975495;28;20046;-76
2021/10/30 04:24:33;;;;;;;19.17;6.47;;;;;;;10.47;68.38;100641.53;4975621;28;20045;-76
2021/10/30 04:26:58;;;;;;;20.23;7.93;;;;;;;10.46;68.50;100635.38;4989470;28;20043;-75
2021/10/30 04:29:25;;;;;;;16.25;7.10;;;;;;;10.41;68.16;100628.69;4994881;28;20049;-79
2021/10/30 04:31:53;;;;;;;15.57;6.45;;;;;;;10.45;68.55;100628.38;4994210;28;20054;-75
2021/10/30 04:34:20;;;;;;;13.93;6.82;;;;;;;10.39;68.19;100618.16;4984209;28;20047;-76
2021/10/30 04:36:48;;;;;;;14.20;6.10;;;;;;;10.41;68.44;100620.75;4989328;28;20081;-75
2021/10/30 04:39:14;;;;;;;13.43;6.13;;;;;;;10.38;68.33;100626.22;4994988;28;20062;-76
2021/10/30 04:41:41;;;;;;;17.17;6.90;;;;;;;10.35;68.43;100614.00;4995115;28;20054;-77
2021/10/30 04:44:11;;;;;;;12.27;5.78;;;;;;;10.31;68.64;100615.13;4977965;28;20038;-80
2021/10/30 04:46:37;;;;;;;14.75;6.97;;;;;;;10.33;69.01;100619.38;4990611;28;20043;-80
2021/10/30 04:49:03;;;;;;;14.07;6.10;;;;;;;10.30;68.64;100613.44;4975676;28;20470;-76
2021/10/30 04:51:30;;;;;;;82.72;26.60;;;;;;;10.29;69.03;100617.00;4970850;28;20043;-79
2021/10/30 04:53:56;;;;;;;26.15;11.90;;;;;;;10.27;68.89;100625.03;4959514;28;20146;-79
2021/10/30 04:56:21;;;;;;;15.20;6.22;;;;;;;10.26;68.63;100614.56;4958675;28;20057;-79
2021/10/30 04:58:47;;;;;;;13.32;7.00;;;;;;;10.24;69.17;100611.16;4976264;28;20031;-78
2021/10/30 05:01:14;;;;;;;16.85;7.22;;;;;;;10.17;69.17;100614.16;4957909;28;20173;-75
2021/10/30 05:03:41;;;;;;;14.50;7.03;;;;;;;10.15;69.51;100617.84;4987939;28;20046;-77
2021/10/30 05:06:08;;;;;;;16.98;7.75;;;;;;;10.06;69.80;100616.59;4995100;28;20050;-78
2021/10/30 05:08:34;;;;;;;14.85;7.05;;;;;;;10.04;69.84;100608.78;4970930;28;20038;-77
2021/10/30 05:11:00;;;;;;;18.25;7.38;;;;;;;10.01;70.13;100618.69;4958719;28;20094;-76
2021/10/30 05:13:25;;;;;;;19.98;7.93;;;;;;;9.99;70.02;100605.56;4979855;28;20106;-79
2021/10/30 05:15:52;;;;;;;18.63;7.55;;;;;;;10.01;70.27;100614.22;4958185;28;20043;-77
2021/10/30 05:18:18;;;;;;;20.65;7.60;;;;;;;10.09;69.56;100615.56;4969565;28;20047;-78
2021/10/30 05:20:44;;;;;;;22.85;8.00;;;;;;;10.10;69.93;100617.28;4939405;29;20046;-77
2021/10/30 05:23:09;;;;;;;22.95;8.27;;;;;;;10.22;69.51;100623.59;4968989;28;20070;-78
2021/10/30 05:25:35;;;;;;;39.20;12.98;;;;;;;10.30;69.21;100624.84;4927578;28;20043;-78
2021/10/30 05:28:01;;;;;;;18.67;8.07;;;;;;;10.30;69.37;100629.28;4980567;28;20042;-77
2021/10/30 05:30:27;;;;;;;21.98;8.13;;;;;;;10.30;69.46;100630.13;4974933;28;20468;-75
2021/10/30 05:32:53;;;;;;;18.13;7.68;;;;;;;10.31;69.22;100625.72;4974771;28;20496;-77
2021/10/30 05:35:37;;;;;;;14.32;6.72;;;;;;;10.26;69.15;100625.16;4974263;28;20038;-77
2021/10/30 05:38:22;;;;;;;24.23;7.70;;;;;;;10.19;69.50;100617.56;4954456;28;20034;-78
2021/10/30 05:40:48;;;;;;;19.27;7.75;;;;;;;10.14;69.89;100624.94;4974281;28;20140;-77
2021/10/30 05:43:14;;;;;;;18.85;7.93;;;;;;;10.25;69.84;100621.63;4940939;28;20123;-80
2021/10/30 05:45:42;;;;;;;19.67;8.63;;;;;;;10.48;69.07;100622.91;4957246;28;20054;-79
2021/10/30 05:48:10;;;;;;;22.08;7.30;;;;;;;11.33;67.08;100622.03;4956816;28;20399;-78
2021/10/30 05:50:37;;;;;;;17.88;7.68;;;;;;;12.30;64.15;100620.88;4960463;28;20042;-80
2021/10/30 05:53:03;;;;;;;26.10;11.88;;;;;;;12.98;61.92;100627.69;4956133;28;20054;-81
2021/10/30 05:55:29;;;;;;;20.98;7.88;;;;;;;13.65;59.41;100621.91;4976509;28;20043;-82
2021/10/30 05:57:55;;;;;;;15.07;7.45;;;;;;;14.26;57.81;100623.53;4976219;28;20039;-77
2021/10/30 06:00:21;;;;;;;13.13;6.30;;;;;;;14.62;56.45;100624.28;4956217;28;20039;-79
2021/10/30 06:02:47;;;;;;;44.28;18.40;;;;;;;14.94;55.46;100623.56;4973890;28;20097;-78
2021/10/30 06:05:13;;;;;;;19.52;7.30;;;;;;;15.23;54.48;100625.69;4973538;28;20045;-78
2021/10/30 06:07:39;;;;;;;13.07;7.50;;;;;;;15.91;53.02;100620.09;4956017;28;20039;-82
2021/10/30 06:10:06;;;;;;;15.95;7.10;;;;;;;16.00;51.79;100621.19;4940513;28;20053;-80
2021/10/30 06:12:37;;;;;;;12.57;7.22;;;;;;;16.22;51.20;100612.16;4940081;28;20034;-84
2021/10/30 06:15:04;;;;;;;18.35;7.05;;;;;;;16.58;50.59;100620.63;4940794;28;20042;-82
2021/10/30 06:17:30;;;;;;;13.03;6.70;;;;;;;17.13;49.44;100622.09;4956126;28;20050;-82
2021/10/30 06:19:56;;;;;;;17.25;7.68;;;;;;;17.53;48.25;100621.16;4941199;28;20306;-85
2021/10/30 06:22:22;;;;;;;18.92;7.53;;;;;;;17.48;48.04;100628.75;4934152;28;20042;-81
2021/10/30 06:24:51;;;;;;;24.92;12.65;;;;;;;17.91;47.30;100632.00;4958651;28;20451;-81
2021/10/30 06:27:23;;;;;;;14.82;7.15;;;;;;;18.23;46.10;100618.31;4936703;29;20065;-83
2021/10/30 06:29:49;;;;;;;16.08;7.57;;;;;;;18.62;45.12;100619.16;4939506;28;20039;-82
2021/10/30 06:32:15;;;;;;;12.98;7.32;;;;;;;19.14;44.21;100630.22;4942706;28;20049;-81
2021/10/30 06:34:41;;;;;;;16.90;8.32;;;;;;;19.23;44.38;100621.25;4955191;28;20077;-79
2021/10/30 06:37:10;;;;;;;19.17;7.90;;;;;;;20.03;42.38;100612.41;4956064;28;20050;-79
2021/10/30 06:39:36;;;;;;;19.92;8.93;;;;;;;20.55;40.79;100621.47;4934919;28;20049;-80
2021/10/30 06:42:02;;;;;;;18.23;7.90;;;;;;;20.14;41.90;100627.44;4959406;28;20094;-82
2021/10/30 06:44:28;;;;;;;16.30;8.27;;;;;;;20.00;41.80;100630.69;4956491;28;20046;-78
2021/10/30 06:46:54;;;;;;;17.10;8.25;;;;;;;19.63;42.33;100626.34;4961764;28;20076;-81
2021/10/30 06:49:24;;;;;;;20.38;8.55;;;;;;;19.82;42.35;100631.50;4974889;28;20069;-79
2021/10/30 06:51:51;;;;;;;21.00;10.07;;;;;;;21.32;39.96;100620.56;4946372;28;20050;-78
2021/10/30 06:54:17;;;;;;;20.05;8.48;;;;;;;20.73;40.45;100632.16;4934616;28;20066;-82
2021/10/30 06:56:43;;;;;;;15.80;8.60;;;;;;;20.22;41.23;100623.13;4928940;28;20472;-80
2021/10/30 06:59:09;;;;;;;18.58;8.50;;;;;;;19.84;41.83;100618.81;4970225;28;20038;-84
2021/10/30 07:01:35;;;;;;;18.38;9.30;;;;;;;20.01;42.07;100629.69;4954144;28;20047;-77
2021/10/30 07:04:02;;;;;;;16.08;8.98;;;;;;;20.69;40.18;100628.91;4974451;28;20050;-80
2021/10/30 07:06:28;;;;;;;20.30;10.63;;;;;;;20.57;40.21;100634.75;4971964;28;20080;-80
2021/10/30 07:08:56;;;;;;;25.63;15.38;;;;;;;20.41;40.93;100632.78;4974803;28;20499;-82
2021/10/30 07:11:23;;;;;;;24.98;12.68;;;;;;;19.39;42.82;100630.47;4958757;28;20043;-81
2021/10/30 07:13:49;;;;;;;24.20;12.25;;;;;;;18.87;43.55;100637.22;4935849;28;20049;-82
2021/10/30 07:16:16;;;;;;;22.48;10.95;;;;;;;18.49;44.57;100636.41;4917369;28;20415;-83
2021/10/30 07:18:43;;;;;;;29.73;14.32;;;;;;;17.80;46.17;100641.03;4943439;28;20145;-79
2021/10/30 07:21:09;;;;;;;18.85;11.45;;;;;;;17.88;46.30;100641.16;4993311;28;20154;-84
2021/10/30 07:23:34;;;;;;;45.78;22.63;;;;;;;17.40;47.21;100647.34;4943830;28;20078;-80
2021/10/30 07:26:00;;;;;;;31.38;15.48;;;;;;;17.67;47.20;100640.44;4973404;28;20050;-82
2021/10/30 07:28:26;;;;;;;25.88;12.93;;;;;;;17.25;47.72;100645.06;4958854;28;20042;-80
2021/10/30 07:30:52;;;;;;;31.65;14.63;;;;;;;16.80;49.09;100645.47;4972726;28;20039;-80
2021/10/30 07:33:18;;;;;;;27.48;14.32;;;;;;;16.38;49.97;100637.56;4940251;28;20069;-79
2021/10/30 07:35:44;;;;;;;29.50;14.65;;;;;;;16.32;50.47;100639.78;4959032;28;20039;-82
2021/10/30 07:38:10;;;;;;;30.63;15.68;;;;;;;16.26;50.92;100642.97;4974868;28;20050;-85
2021/10/30 07:40:36;;;;;;;23.73;12.25;;;;;;;16.25;51.19;100651.94;4939911;28;20105;-81
2021/10/30 07:43:25;;;;;;;28.83;12.38;;;;;;;15.92;52.00;100651.16;4961784;28;20042;-89
2021/10/30 07:45:54;;;;;;;26.02;10.98;;;;;;;15.87;52.15;100652.53;4927052;28;20038;-81
2021/10/30 07:48:19;;;;;;;24.48;11.32;;;;;;;15.54;52.97;100652.50;4966369;28;20062;-81
2021/10/30 07:50:45;;;;;;;24.15;12.40;;;;;;;15.26;54.15;100669.91;4976252;28;20042;-82
2021/10/30 07:53:13;;;;;;;28.92;14.57;;;;;;;15.29;53.77;100670.50;4945040;28;20043;-84
2021/10/30 07:55:39;;;;;;;22.67;10.82;;;;;;;14.78;55.23;100665.69;4938706;28;20070;-80
2021/10/30 07:58:04;;;;;;;24.52;11.95;;;;;;;14.66;55.78;100657.72;4958870;28;20113;-84
2021/10/30 08:00:30;;;;;;;21.40;11.52;;;;;;;14.72;55.45;100645.75;4964689;28;20046;-80
2021/10/30 08:02:57;;;;;;;20.65;12.43;;;;;;;15.22;54.78;100653.31;4938920;28;20133;-85
2021/10/30 08:05:23;;;;;;;25.30;11.18;;;;;;;15.78;52.95;100643.44;4957331;28;20043;-82
2021/10/30 08:07:54;;;;;;;32.85;17.27;;;;;;;16.15;52.43;100649.22;4961849;28;20101;-84
2021/10/30 08:10:26;;;;;;;32.90;16.75;;;;;;;16.36;51.73;100648.34;4944622;28;20098;-85
2021/10/30 08:12:55;;;;;;;42.15;18.98;;;;;;;15.68;52.66;100654.03;4931828;28;20504;-87
2021/10/30 08:15:21;;;;;;;37.33;17.55;;;;;;;15.46;53.37;100652.28;4973017;28;20061;-81
2021/10/30 08:17:48;;;;;;;29.08;14.43;;;;;;;15.23;53.79;100655.00;4925852;28;20046;-79
2021/10/30 08:20:14;;;;;;;30.25;14.15;;;;;;;15.37;53.72;100645.88;4935023;28;20110;-81
2021/10/30 08:22:40;;;;;;;30.00;13.70;;;;;;;15.79;52.93;100642.47;4972483;28;20124;-83
2021/10/30 08:25:07;;;;;;;38.05;17.75;;;;;;;16.01;52.03;100649.53;4977830;28;20106;-81
2021/10/30 08:27:32;;;;;;;47.77;20.83;;;;;;;16.54;51.10;100650.44;4941550;28;20042;-82
2021/10/30 08:29:58;;;;;;;23.17;10.98;;;;;;;16.32;50.85;100652.25;4984464;28;20665;-80
2021/10/30 08:32:24;;;;;;;38.28;16.63;;;;;;;15.96;52.00;100657.94;4969774;28;20039;-81
2021/10/30 08:34:52;;;;;;;29.30;13.48;;;;;;;15.64;52.58;100647.28;4943661;28;20034;-84
2021/10/30 08:37:18;;;;;;;22.83;13.73;;;;;;;15.43;53.40;100660.53;4960301;28;20086;-80
2021/10/30 08:39:44;;;;;;;25.95;10.93;;;;;;;14.62;55.11;100671.38;4945007;28;20042;-81
2021/10/30 08:42:10;;;;;;;28.92;12.30;;;;;;;14.17;56.64;100672.16;4961333;28;20101;-80
2021/10/30 08:44:40;;;;;;;30.25;11.73;;;;;;;14.74;55.53;100664.25;4928583;28;20042;-83
2021/10/30 08:47:07;;;;;;;20.63;11.10;;;;;;;14.74;55.16;100661.59;4946549;28;20113;-81
2021/10/30 08:49:37;;;;;;;24.27;13.18;;;;;;;14.86;54.91;100672.09;4971187;28;20689;-80
2021/10/30 08:52:05;;;;;;;27.30;13.65;;;;;;;14.90;54.67;100664.72;4975270;28;20043;-78
2021/10/30 08:54:34;;;;;;;;;;;;;;;14.70;55.28;100667.19;4973755;28;20049;-79
2021/10/30 08:57:00;;;;;;;26.80;13.23;;;;;;;15.60;53.35;100657.34;4960385;28;19954;-79
2021/10/30 08:59:42;;;;;;;22.17;10.40;;;;;;;15.80;52.24;100662.81;4975127;28;20516;-80
2021/10/30 09:02:14;;;;;;;23.48;11.60;;;;;;;16.45;51.18;100652.06;4958201;28;20047;-80
2021/10/30 09:04:40;;;;;;;25.17;11.38;;;;;;;17.40;49.22;100647.34;4938135;28;20519;-85
2021/10/30 09:07:08;;;;;;;14.63;9.40;;;;;;;17.55;48.26;100651.28;4956588;28;20043;-83
2021/10/30 09:09:36;;;;;;;23.38;10.75;;;;;;;17.20;48.49;100658.00;4975225;28;20415;-77
2021/10/30 09:12:03;;;;;;;18.70;11.13;;;;;;;16.60;49.57;100660.56;4980647;28;20053;-79
2021/10/30 09:14:32;;;;;;;24.33;12.07;;;;;;;16.14;50.85;100663.53;4984608;28;20070;-81
2021/10/30 09:17:18;;;;;;;26.15;12.45;;;;;;;15.97;51.01;100664.94;4944659;28;20042;-81
2021/10/30 09:19:52;;;;;;;26.88;14.70;;;;;;;16.46;50.08;100661.75;4969350;28;20053;-79
2021/10/30 09:22:20;;;;;;;22.45;11.07;;;;;;;16.82;49.04;100659.53;4964209;28;20038;-78
2021/10/30 09:24:52;;;;;;;;;;;;;;;17.80;47.15;100659.75;4941427;29;20151;-77
2021/10/30 09:27:41;;;;;;;23.75;10.95;;;;;;;17.60;46.80;100654.38;4941781;28;19922;-81
2021/10/30 09:30:07;;;;;;;24.73;12.70;;;;;;;17.67;46.74;100662.72;4956232;28;20154;-81
2021/10/30 09:32:35;;;;;;;29.45;13.80;;;;;;;17.70;46.50;100662.41;4960076;28;20085;-76
2021/10/30 09:35:08;;;;;;;32.67;15.90;;;;;;;17.09;47.70;100655.44;4964043;28;20396;-82
2021/10/30 09:37:35;;;;;;;47.28;18.73;;;;;;;16.07;50.05;100661.53;4957070;28;20149;-84
2021/10/30 09:40:23;;;;;;;31.33;15.07;;;;;;;16.45;49.53;100663.59;4958164;28;20146;-80
2021/10/30 09:43:13;;;;;;;31.73;17.67;;;;;;;16.24;49.57;100666.28;4953273;28;20047;-81
2021/10/30 09:45:52;;;;;;;25.65;12.25;;;;;;;17.26;48.29;100661.97;4937364;29;20078;-79
2021/10/30 09:48:21;;;;;;;25.35;10.98;;;;;;;17.61;47.07;100656.09;4953164;28;20082;-83
2021/10/30 09:50:50;;;;;;;21.88;9.48;;;;;;;17.97;46.41;100646.66;4938096;29;20050;-84
2021/10/30 09:53:41;;;;;;;22.95;10.48;;;;;;;18.43;45.18;100658.44;4923218;29;20531;-82
2021/10/30 09:56:12;;;;;;;23.95;12.40;;;;;;;18.86;44.45;100659.66;4922582;29;20054;-83
2021/10/30 09:58:43;;;;;;;33.03;15.93;;;;;;;18.83;44.32;100651.94;4939536;29;20126;-81
2021/10/30 10:01:15;;;;;;;25.52;13.32;;;;;;;18.51;44.71;100658.53;4938010;29;20505;-89
2021/10/30 10:03:42;;;;;;;42.35;18.45;;;;;;;17.88;45.72;100651.00;4923480;29;20511;-82
2021/10/30 10:06:10;;;;;;;21.63;11.63;;;;;;;17.32;46.82;100660.56;4908680;29;20140;-85
2021/10/30 10:08:42;;;;;;;23.00;10.57;;;;;;;17.20;47.36;100652.66;4908311;29;20043;-85
2021/10/30 10:11:13;;;;;;;27.92;13.35;;;;;;;17.92;46.29;100647.91;4908583;29;20390;-82
2021/10/30 10:13:43;;;;;;;32.85;13.77;;;;;;;17.98;45.37;100662.59;4923137;29;20051;-81
2021/10/30 10:16:12;;;;;;;29.38;13.77;;;;;;;17.96;45.29;100645.84;4923605;29;20054;-82
2021/10/30 10:18:39;;;;;;;49.72;20.35;;;;;;;17.95;45.37;100650.31;4913422;28;20061;-81
2021/10/30 10:21:06;;;;;;;31.02;14.82;;;;;;;17.60;45.71;100653.56;4942344;28;20081;-80
2021/10/30 10:23:33;;;;;;;23.80;11.63;;;;;;;17.29;46.60;100662.50;4942131;28;20161;-78
2021/10/30 10:26:00;;;;;;;20.10;10.55;;;;;;;17.18;46.91;100659.13;4959144;28;20050;-82
2021/10/30 10:28:32;;;;;;;27.65;11.10;;;;;;;17.01;47.37;100663.28;4926545;28;20054;-78
2021/10/30 10:31:00;;;;;;;24.23;11.43;;;;;;;17.19;46.96;100661.66;4927009;28;20145;-81
2021/10/30 10:33:27;;;;;;;28.05;14.05;;;;;;;17.02;47.20;100644.44;4956512;28;20382;-82
2021/10/30 10:36:16;;;;;;;38.28;16.95;;;;;;;16.74;48.30;100651.34;4922974;29;20043;-81
2021/10/30 10:38:57;;;;;;;22.55;11.65;;;;;;;16.79;47.86;100652.63;4938173;29;20098;-82
2021/10/30 10:41:44;;;;;;;29.20;13.18;;;;;;;16.69;48.37;100650.91;4938609;29;20070;-85
2021/10/30 10:44:13;;;;;;;21.67;10.50;;;;;;;16.70;48.14;100633.88;4955764;29;20054;-85
2021/10/30 10:46:40;;;;;;;18.65;10.20;;;;;;;16.54;48.40;100647.75;4908375;29;20133;-82
2021/10/30 10:49:23;;;;;;;19.88;9.50;;;;;;;16.64;48.51;100643.28;4924283;29;20042;-82
2021/10/30 10:52:02;;;;;;;24.45;11.25;;;;;;;16.62;48.36;100643.44;4907335;29;20404;-84
2021/10/30 10:54:48;;;;;;;24.23;10.18;;;;;;;16.40;48.42;100649.78;4922340;29;20054;-82
2021/10/30 10:57:32;;;;;;;22.00;9.23;;;;;;;16.18;49.15;100643.59;4922394;28;20043;-82
2021/10/30 11:00:00;;;;;;;20.10;8.98;;;;;;;16.14;49.04;100649.34;4934279;28;20034;-82
2021/10/30 11:02:31;;;;;;;19.42;9.70;;;;;;;15.95;49.91;100644.72;4938576;29;20137;-85
2021/10/30 11:05:10;;;;;;;17.42;9.35;;;;;;;15.88;50.04;100649.72;4940585;29;20430;-82
2021/10/30 11:07:51;;;;;;;20.30;9.30;;;;;;;15.91;50.11;100648.63;4935145;29;20043;-81
2021/10/30 11:10:21;;;;;;;23.40;10.80;;;;;;;15.86;50.47;100643.66;4938434;29;20039;-84
2021/10/30 11:15:45;;;;;;;30.73;11.68;;;;;;;15.61;51.17;100639.50;4953523;29;20504;-84
2021/10/30 11:18:27;;;;;;;22.25;10.68;;;;;;;15.41;51.80;100647.31;4929821;28;20641;-81
2021/10/30 11:21:16;;;;;;;29.58;12.80;;;;;;;15.30;52.17;100637.56;4971645;28;20204;-84